Airport Name : Henry Post AAF

Other Name : Henry Post AAF

ICAO : KFSI

IATA : FSI

FAA : FSI

Latitude : 34.649833

Longitude : -98.402167

Country : United States

Local Date and Time : 04 Dec 2020 10:31

 

TAF (Terminal Aerodrome Forecast)

 

METAR (METeorological Aerodrome Report)

KFSI 041556Z AUTO 00000KT 10SM CLR 03/M00 A3022 RMK AO2 SLP242 T00311004 $

KFSI 041456Z AUTO 00000KT 10SM CLR M00/M03 A3021 RMK AO2 SLP239 T10041031 50006 $

KFSI 041356Z AUTO 00000KT 10SM CLR M03/M04 A3022 RMK AO2 SLP243 T10351045 $

KFSI 041256Z AUTO 16003KT 10SM CLR M04/M06 A3020 RMK AO2 SLP237 T10431056 $

To Charter a Jet Click here.